Time;durP1;ratioP1;P1;durP2;ratioP2;P2;SDS_P1;SDS_P2;PMS_P1;PMS_P2;Temp;Humidity;BMP_temperature;BMP_pressure;BME280_temperature;BME280_humidity;BME280_pressure;Samples;Min_cycle;Max_cycle;Signal;HPM_P1;HPM_P2
2023/07/02 00:01:12;;;;;;;19.40;7.40;;;17.30;99.90;;;;;;5073311;28;20043;-69
2023/07/02 00:03:38;;;;;;;18.73;7.60;;;17.10;99.90;;;;;;5073758;28;20039;-68
2023/07/02 00:06:05;;;;;;;22.25;7.35;;;17.20;99.90;;;;;;5073952;28;20147;-68
2023/07/02 00:08:30;;;;;;;25.73;8.10;;;17.00;99.90;;;;;;5055415;28;20120;-68
2023/07/02 00:10:56;;;;;;;23.60;7.57;;;17.10;99.90;;;;;;5055355;28;20127;-68
2023/07/02 00:13:21;;;;;;;22.90;8.07;;;17.10;99.90;;;;;;5054962;28;20041;-68
2023/07/02 00:15:47;;;;;;;24.85;8.50;;;17.10;99.90;;;;;;5055700;28;20124;-68
2023/07/02 00:18:16;;;;;;;23.17;7.45;;;17.00;99.90;;;;;;5055100;28;20035;-68
2023/07/02 00:20:43;;;;;;;17.70;7.20;;;17.00;99.90;;;;;;5055390;28;20442;-68
2023/07/02 00:23:09;;;;;;;21.98;8.43;;;17.00;99.90;;;;;;5072450;28;20434;-68
2023/07/02 00:25:38;;;;;;;19.20;8.18;;;16.80;99.90;;;;;;5055151;28;20036;-68
2023/07/02 00:28:04;;;;;;;21.85;8.15;;;16.90;99.90;;;;;;5071336;28;20094;-68
2023/07/02 00:30:29;;;;;;;22.63;9.18;;;16.80;99.90;;;;;;5072728;28;20041;-68
2023/07/02 00:32:55;;;;;;;30.67;9.25;;;16.70;99.90;;;;;;5055306;28;20052;-68
2023/07/02 00:35:21;;;;;;;22.20;8.75;;;16.60;99.90;;;;;;5054947;28;20040;-68
2023/07/02 00:37:47;;;;;;;24.83;7.60;;;16.80;99.90;;;;;;5055082;28;20123;-68
2023/07/02 00:40:13;;;;;;;24.70;7.97;;;16.70;99.90;;;;;;5072295;28;20400;-68
2023/07/02 00:42:38;;;;;;;26.90;9.38;;;17.00;99.90;;;;;;5072806;28;20068;-68
2023/07/02 00:45:06;;;;;;;20.40;7.60;;;16.80;99.90;;;;;;5072679;28;20048;-68
2023/07/02 00:47:34;;;;;;;21.75;8.30;;;16.60;99.90;;;;;;5072948;28;20055;-68
2023/07/02 00:50:00;;;;;;;24.17;8.15;;;16.80;99.90;;;;;;5070753;28;20043;-68
2023/07/02 00:52:25;;;;;;;22.45;7.72;;;16.60;99.90;;;;;;5072679;28;20476;-68
2023/07/02 00:54:51;;;;;;;23.73;9.27;;;16.70;99.90;;;;;;5072579;28;20044;-68
2023/07/02 00:57:18;;;;;;;24.90;8.35;;;16.50;99.90;;;;;;5054669;28;20563;-68
2023/07/02 00:59:43;;;;;;;18.77;8.07;;;16.50;99.90;;;;;;5071788;28;20128;-68
2023/07/02 01:02:10;;;;;;;24.85;8.75;;;16.50;99.90;;;;;;5072388;28;20123;-68
2023/07/02 01:04:37;;;;;;;24.52;8.85;;;16.60;99.90;;;;;;5054860;28;20048;-68
2023/07/02 01:07:08;;;;;;;27.88;9.73;;;16.40;99.90;;;;;;5072452;28;20087;-68
2023/07/02 01:09:34;;;;;;;29.73;9.73;;;16.50;99.90;;;;;;5054115;28;20036;-68
2023/07/02 01:12:03;;;;;;;28.05;9.02;;;16.30;99.90;;;;;;5054352;28;20048;-68
2023/07/02 01:14:33;;;;;;;30.08;9.35;;;16.40;99.90;;;;;;5072196;28;20039;-68
2023/07/02 01:17:01;;;;;;;27.20;8.98;;;16.40;99.90;;;;;;5054335;28;20051;-69
2023/07/02 01:19:44;;;;;;;23.92;8.55;;;16.40;99.90;;;;;;5071735;28;20079;-67
2023/07/02 01:22:10;;;;;;;25.92;9.27;;;16.30;99.90;;;;;;5054266;28;20127;-68
2023/07/02 01:24:38;;;;;;;32.65;8.93;;;16.30;99.90;;;;;;5071002;28;20593;-68
2023/07/02 01:27:04;;;;;;;22.13;8.43;;;16.40;99.90;;;;;;5054171;28;20041;-68
2023/07/02 01:29:30;;;;;;;18.83;9.80;;;16.40;99.90;;;;;;5053628;28;20036;-67
2023/07/02 01:31:56;;;;;;;25.77;8.48;;;16.20;99.90;;;;;;5072361;28;20222;-68
2023/07/02 01:34:23;;;;;;;27.80;10.15;;;16.30;99.90;;;;;;5071935;28;20036;-67
2023/07/02 01:36:48;;;;;;;22.98;8.43;;;16.10;99.90;;;;;;5053849;28;20487;-68
2023/07/02 01:39:15;;;;;;;22.65;8.38;;;16.10;99.90;;;;;;5071264;28;20123;-68
2023/07/02 01:41:56;;;;;;;24.55;9.20;;;16.00;99.90;;;;;;5037076;28;20170;-68
2023/07/02 01:44:22;;;;;;;24.67;8.43;;;16.00;99.90;;;;;;5070374;28;20050;-68
2023/07/02 01:46:48;;;;;;;24.83;8.75;;;16.00;99.90;;;;;;5054014;28;20044;-68
2023/07/02 01:49:18;;;;;;;23.92;8.38;;;15.90;99.90;;;;;;5071263;28;20048;-68
2023/07/02 01:51:54;;;;;;;27.63;8.52;;;15.80;99.90;;;;;;5071898;28;20036;-68
2023/07/02 01:54:22;;;;;;;26.38;8.98;;;15.80;99.90;;;;;;5054221;28;20397;-68
2023/07/02 01:56:48;;;;;;;27.65;9.23;;;15.80;99.90;;;;;;5037643;28;20136;-69
2023/07/02 01:59:14;;;;;;;24.40;8.90;;;15.70;99.90;;;;;;5071053;28;20111;-68
2023/07/02 02:01:40;;;;;;;23.63;9.02;;;15.80;99.90;;;;;;5053823;28;20041;-68
2023/07/02 02:04:09;;;;;;;24.48;9.30;;;15.80;99.90;;;;;;5071519;28;20040;-68
2023/07/02 02:06:36;;;;;;;26.35;8.73;;;15.80;99.90;;;;;;5070672;28;20041;-68
2023/07/02 02:09:04;;;;;;;28.95;8.60;;;15.70;99.90;;;;;;5053198;28;20094;-68
2023/07/02 02:11:30;;;;;;;33.38;8.80;;;15.80;99.90;;;;;;5053630;28;20442;-68
2023/07/02 02:13:56;;;;;;;27.50;9.45;;;15.60;99.90;;;;;;5053512;28;20036;-68
2023/07/02 02:16:22;;;;;;;23.92;9.27;;;15.70;99.90;;;;;;5071479;28;20121;-68
2023/07/02 02:18:51;;;;;;;34.88;9.73;;;15.70;99.90;;;;;;5052874;28;20129;-68
2023/07/02 02:21:20;;;;;;;28.40;9.43;;;15.60;99.90;;;;;;5053416;28;20048;-68
2023/07/02 02:23:46;;;;;;;30.52;8.95;;;15.90;99.90;;;;;;5053417;28;20040;-69
2023/07/02 02:26:11;;;;;;;25.35;9.23;;;15.70;99.90;;;;;;5053589;28;20080;-68
2023/07/02 02:28:37;;;;;;;28.88;10.68;;;15.70;99.90;;;;;;5070850;28;20079;-68
2023/07/02 02:31:03;;;;;;;25.83;8.88;;;15.70;99.90;;;;;;5053054;28;20043;-69
2023/07/02 02:33:29;;;;;;;23.88;8.88;;;15.70;99.90;;;;;;5071664;28;20055;-69
2023/07/02 02:35:55;;;;;;;29.73;9.65;;;15.80;99.90;;;;;;5036752;28;20078;-69
2023/07/02 02:38:20;;;;;;;24.52;7.95;;;15.50;99.90;;;;;;5056891;28;20037;-68
2023/07/02 02:40:46;;;;;;;28.73;8.80;;;15.60;99.90;;;;;;5075039;28;20079;-68
2023/07/02 02:43:12;;;;;;;27.65;9.15;;;15.60;99.90;;;;;;5040650;28;20040;-68
2023/07/02 02:45:38;;;;;;;29.08;10.63;;;15.50;99.90;;;;;;5075015;28;20041;-68
2023/07/02 02:48:04;;;;;;;25.33;8.50;;;15.60;99.90;;;;;;5073299;28;20044;-69
2023/07/02 02:50:29;;;;;;;24.25;9.20;;;15.50;99.90;;;;;;5074978;28;20035;-68
2023/07/02 02:52:55;;;;;;;31.38;9.20;;;15.50;99.90;;;;;;5057030;28;20496;-68
2023/07/02 02:55:21;;;;;;;39.90;9.10;;;15.60;99.90;;;;;;5056877;28;20119;-68
2023/07/02 02:57:46;;;;;;;24.73;8.93;;;15.60;99.90;;;;;;5056834;28;20131;-68
2023/07/02 03:00:12;;;;;;;26.52;8.82;;;15.70;99.90;;;;;;5039819;28;20040;-68
2023/07/02 03:02:38;;;;;;;32.63;9.40;;;15.60;99.90;;;;;;5056854;28;20042;-69
2023/07/02 03:05:06;;;;;;;31.45;8.80;;;15.50;99.90;;;;;;5040053;28;20040;-68
2023/07/02 03:07:32;;;;;;;24.55;9.68;;;15.40;99.90;;;;;;5074624;28;20040;-68
2023/07/02 03:09:58;;;;;;;22.15;7.95;;;15.50;99.90;;;;;;5056267;28;20492;-68
2023/07/02 03:12:25;;;;;;;25.38;9.27;;;15.50;99.90;;;;;;5073536;28;20058;-68
2023/07/02 03:14:54;;;;;;;25.20;9.15;;;15.50;99.90;;;;;;5056491;28;20037;-68
2023/07/02 03:17:20;;;;;;;25.90;8.65;;;15.90;99.90;;;;;;5056573;28;20059;-68
2023/07/02 03:19:46;;;;;;;25.25;8.13;;;15.80;99.90;;;;;;5055894;28;20083;-68
2023/07/02 03:22:12;;;;;;;31.60;9.45;;;15.50;99.90;;;;;;5074837;28;20048;-68
2023/07/02 03:24:38;;;;;;;27.08;8.38;;;15.60;99.90;;;;;;5074391;28;20043;-68
2023/07/02 03:27:04;;;;;;;30.25;8.30;;;15.60;99.90;;;;;;5073112;28;20053;-68
2023/07/02 03:29:30;;;;;;;27.95;8.40;;;15.50;99.90;;;;;;5073630;28;20301;-67
2023/07/02 03:31:55;;;;;;;22.80;8.35;;;15.70;99.90;;;;;;5056286;28;20075;-68
2023/07/02 03:34:23;;;;;;;24.27;7.15;;;15.60;99.90;;;;;;5074333;28;20087;-68
2023/07/02 03:36:49;;;;;;;28.92;7.85;;;15.60;99.90;;;;;;5056170;28;20123;-68
2023/07/02 03:39:14;;;;;;;22.13;8.05;;;15.70;99.90;;;;;;5073889;28;20116;-68
2023/07/02 03:41:40;;;;;;;22.58;7.97;;;15.80;99.90;;;;;;5055882;28;20095;-68
2023/07/02 03:44:06;;;;;;;27.15;8.35;;;15.70;99.90;;;;;;5055925;28;20388;-68
2023/07/02 03:46:32;;;;;;;24.17;7.68;;;15.80;99.90;;;;;;5056097;28;20048;-68
2023/07/02 03:48:57;;;;;;;25.60;7.95;;;15.70;99.90;;;;;;5072354;28;20130;-69
2023/07/02 03:51:23;;;;;;;29.30;8.15;;;15.70;99.90;;;;;;5055901;28;20044;-69
2023/07/02 03:53:49;;;;;;;23.30;8.63;;;16.20;99.90;;;;;;5073914;28;20032;-68
2023/07/02 03:56:15;;;;;;;22.67;9.45;;;16.10;99.90;;;;;;5073836;28;20047;-69
2023/07/02 03:58:40;;;;;;;18.20;7.55;;;15.80;99.90;;;;;;5055203;28;20127;-69
2023/07/02 04:01:06;;;;;;;26.98;8.40;;;15.90;99.90;;;;;;5073806;28;20116;-68
2023/07/02 04:03:32;;;;;;;23.42;8.30;;;16.10;99.90;;;;;;5073959;28;20033;-69
2023/07/02 04:05:57;;;;;;;28.77;8.25;;;15.80;99.90;;;;;;5055838;28;20044;-68
2023/07/02 04:08:24;;;;;;;27.45;7.97;;;16.30;99.90;;;;;;5073095;28;20071;-69
2023/07/02 04:10:50;;;;;;;16.75;7.15;;;15.90;99.90;;;;;;5073192;28;20118;-69
2023/07/02 04:13:16;;;;;;;22.25;8.20;;;15.80;99.90;;;;;;5072255;28;20036;-68
2023/07/02 04:15:42;;;;;;;26.95;8.60;;;16.00;99.90;;;;;;5073713;28;20612;-69
2023/07/02 04:18:08;;;;;;;22.20;7.90;;;16.50;99.90;;;;;;5055079;28;20041;-69
2023/07/02 04:20:33;;;;;;;26.73;7.85;;;15.90;99.90;;;;;;5073243;28;20040;-69
2023/07/02 04:22:59;;;;;;;28.17;8.05;;;16.00;99.90;;;;;;5055211;28;20032;-69
2023/07/02 04:25:25;;;;;;;21.52;7.57;;;16.20;99.90;;;;;;5055237;28;20032;-68
2023/07/02 04:27:56;;;;;;;17.90;6.50;;;16.10;99.90;;;;;;5055066;28;20048;-69
2023/07/02 04:30:21;;;;;;;20.30;7.18;;;16.10;99.90;;;;;;5054959;28;20036;-68
2023/07/02 04:32:47;;;;;;;24.15;7.05;;;16.10;99.90;;;;;;5055045;28;20032;-69
2023/07/02 04:35:13;;;;;;;17.52;6.85;;;16.20;99.90;;;;;;5055063;28;20029;-68
2023/07/02 04:37:38;;;;;;;16.35;6.32;;;16.00;99.90;;;;;;5055176;28;20417;-68
2023/07/02 04:40:14;;;;;;;18.55;6.38;;;16.30;99.90;;;;;;5054165;28;20127;-69
2023/07/02 04:42:41;;;;;;;16.90;6.45;;;16.20;99.90;;;;;;5055049;28;20040;-69
2023/07/02 04:45:08;;;;;;;13.73;5.30;;;16.20;99.90;;;;;;5072786;28;20508;-69
2023/07/02 04:47:34;;;;;;;15.98;5.43;;;16.20;99.90;;;;;;5072711;28;20535;-69
2023/07/02 04:50:00;;;;;;;16.33;5.85;;;16.30;99.90;;;;;;5054285;28;20042;-69
2023/07/02 04:52:26;;;;;;;16.38;6.10;;;16.50;99.90;;;;;;5072820;28;20036;-69
2023/07/02 04:54:52;;;;;;;14.07;5.03;;;16.50;99.90;;;;;;5054599;28;20063;-69
2023/07/02 04:57:17;;;;;;;19.42;7.03;;;16.80;99.90;;;;;;5054748;28;20044;-68
2023/07/02 04:59:43;;;;;;;17.67;5.90;;;16.30;99.90;;;;;;5071755;28;20404;-69
2023/07/02 05:02:09;;;;;;;14.63;5.30;;;16.60;99.90;;;;;;5072801;28;20043;-67
2023/07/02 05:04:35;;;;;;;17.95;6.22;;;16.60;99.90;;;;;;5072548;28;20097;-68
2023/07/02 05:07:01;;;;;;;16.13;6.03;;;16.10;99.90;;;;;;5054540;28;20128;-68
2023/07/02 05:09:26;;;;;;;17.52;6.18;;;16.20;99.90;;;;;;5053811;28;20127;-68
2023/07/02 05:11:52;;;;;;;17.63;5.43;;;16.10;99.90;;;;;;5054677;28;20083;-68
2023/07/02 05:14:18;;;;;;;18.95;6.38;;;16.20;99.90;;;;;;5054352;28;20036;-68
2023/07/02 05:16:43;;;;;;;19.25;6.90;;;16.50;99.90;;;;;;5072242;28;20042;-68
2023/07/02 05:19:09;;;;;;;21.45;5.95;;;16.50;99.90;;;;;;5053772;28;20080;-68
2023/07/02 05:21:35;;;;;;;18.70;6.82;;;16.70;99.90;;;;;;5053993;28;20075;-68
2023/07/02 05:24:00;;;;;;;17.40;6.60;;;16.40;99.90;;;;;;5054085;28;20036;-68
2023/07/02 05:26:27;;;;;;;20.48;6.43;;;16.50;99.90;;;;;;5072214;28;20086;-68
2023/07/02 05:28:53;;;;;;;19.10;5.55;;;16.50;99.90;;;;;;5071477;28;20551;-68
2023/07/02 05:31:19;;;;;;;14.55;5.82;;;16.50;99.90;;;;;;5037448;28;20115;-68
2023/07/02 05:33:44;;;;;;;23.88;6.63;;;16.60;99.90;;;;;;5054252;28;20127;-68
2023/07/02 05:36:10;;;;;;;19.30;6.53;;;16.70;99.90;;;;;;5054102;28;20036;-69
2023/07/02 05:38:35;;;;;;;16.48;5.97;;;16.60;99.90;;;;;;5053454;28;20063;-68
2023/07/02 05:41:03;;;;;;;14.38;6.38;;;16.40;99.90;;;;;;5053743;28;20036;-68
2023/07/02 05:43:29;;;;;;;20.83;6.80;;;16.40;99.90;;;;;;5054177;28;20036;-69
2023/07/02 05:45:54;;;;;;;16.83;5.72;;;16.40;99.90;;;;;;5071931;28;20086;-68
2023/07/02 05:48:20;;;;;;;21.70;6.60;;;16.30;99.90;;;;;;5071380;28;20059;-68
2023/07/02 05:50:46;;;;;;;19.25;5.30;;;16.50;99.90;;;;;;5053666;28;20081;-68
2023/07/02 05:53:11;;;;;;;19.90;5.68;;;16.70;99.90;;;;;;5053755;28;20127;-69
2023/07/02 05:55:37;;;;;;;15.75;6.00;;;16.70;99.90;;;;;;5070399;28;20037;-68
2023/07/02 05:58:03;;;;;;;17.27;5.55;;;16.80;99.90;;;;;;5071647;28;20036;-69
2023/07/02 06:00:29;;;;;;;14.02;6.28;;;16.90;99.90;;;;;;5053553;28;20085;-69
2023/07/02 06:02:55;;;;;;;24.42;6.78;;;17.20;99.90;;;;;;5037286;28;20040;-69
2023/07/02 06:05:20;;;;;;;15.27;6.00;;;17.30;99.90;;;;;;5071602;28;20043;-68
2023/07/02 06:07:46;;;;;;;16.48;5.15;;;17.40;99.90;;;;;;5053577;28;20500;-68
2023/07/02 06:10:12;;;;;;;21.67;5.95;;;17.40;99.90;;;;;;5052848;28;20036;-69
2023/07/02 06:12:38;;;;;;;20.42;5.88;;;17.20;99.90;;;;;;5052962;28;20036;-69
2023/07/02 06:15:04;;;;;;;14.45;5.88;;;17.00;99.90;;;;;;5037276;28;20419;-69
2023/07/02 06:17:30;;;;;;;15.98;5.50;;;17.00;99.90;;;;;;5071608;28;20045;-68
2023/07/02 06:19:57;;;;;;;18.23;5.53;;;17.40;99.90;;;;;;5053108;28;20044;-69
2023/07/02 06:22:23;;;;;;;16.77;6.53;;;17.30;99.90;;;;;;5071081;28;20500;-69
2023/07/02 06:24:48;;;;;;;20.17;5.47;;;17.50;99.90;;;;;;5053616;28;20060;-69
2023/07/02 06:27:14;;;;;;;17.58;5.50;;;17.60;99.90;;;;;;5053605;28;20048;-69
2023/07/02 06:29:40;;;;;;;13.68;4.82;;;17.50;99.90;;;;;;5052761;28;20119;-69
2023/07/02 06:32:06;;;;;;;13.48;5.40;;;17.50;99.90;;;;;;5053475;28;20458;-69
2023/07/02 06:34:31;;;;;;;16.65;5.90;;;17.50;99.90;;;;;;5053313;28;20040;-68
2023/07/02 06:36:57;;;;;;;15.80;4.20;;;17.90;99.90;;;;;;5071158;28;20083;-69
2023/07/02 06:39:22;;;;;;;10.27;4.22;;;18.00;99.90;;;;;;5036168;28;20109;-68
2023/07/02 06:41:48;;;;;;;14.95;4.13;;;18.00;99.90;;;;;;5053186;28;20492;-69
2023/07/02 06:44:14;;;;;;;15.95;4.90;;;18.10;99.90;;;;;;5071406;28;20041;-68
2023/07/02 06:46:39;;;;;;;11.18;3.70;;;18.20;99.90;;;;;;5053241;28;20041;-68
2023/07/02 06:49:05;;;;;;;20.58;5.07;;;18.10;99.90;;;;;;5070695;28;20041;-69
2023/07/02 06:51:31;;;;;;;12.38;4.07;;;17.80;99.90;;;;;;5052554;28;20058;-69
2023/07/02 06:53:56;;;;;;;14.32;4.13;;;17.80;99.90;;;;;;5053106;28;20094;-68
2023/07/02 06:56:22;;;;;;;11.38;3.75;;;17.40;99.90;;;;;;5053427;28;20489;-69
2023/07/02 06:58:48;;;;;;;15.52;4.20;;;17.60;99.90;;;;;;5070772;28;20132;-68
2023/07/02 07:01:13;;;;;;;21.48;5.32;;;17.60;99.90;;;;;;5052873;28;20123;-69
2023/07/02 07:03:39;;;;;;;16.65;4.53;;;18.50;99.90;;;;;;5053191;28;20048;-68
2023/07/02 07:06:05;;;;;;;18.98;3.88;;;18.20;99.90;;;;;;5052993;28;20515;-68
2023/07/02 07:08:30;;;;;;;11.32;3.40;;;18.10;99.90;;;;;;5070771;28;20504;-68
2023/07/02 07:10:56;;;;;;;14.23;4.60;;;18.40;99.90;;;;;;5052904;28;20044;-69
2023/07/02 07:13:21;;;;;;;18.48;4.88;;;18.20;99.90;;;;;;5053347;28;20076;-69
2023/07/02 07:15:47;;;;;;;12.07;4.13;;;18.40;99.90;;;;;;5053193;28;20029;-69
2023/07/02 07:18:13;;;;;;;9.27;3.42;;;18.40;99.90;;;;;;5052557;28;20102;-69
2023/07/02 07:20:40;;;;;;;10.38;3.42;;;18.70;99.90;;;;;;5052785;28;20346;-68
2023/07/02 07:23:06;;;;;;;16.92;3.88;;;18.80;99.90;;;;;;5054719;28;20045;-68
2023/07/02 07:25:32;;;;;;;10.65;3.50;;;18.70;99.90;;;;;;5073307;28;20044;-68
2023/07/02 07:27:59;;;;;;;10.18;3.25;;;18.60;99.90;;;;;;5073938;28;20051;-67
2023/07/02 07:30:25;;;;;;;13.95;4.45;;;18.20;99.90;;;;;;5056345;28;20040;-69
2023/07/02 07:32:51;;;;;;;10.35;3.42;;;18.20;99.90;;;;;;5039820;28;20446;-68
2023/07/02 07:35:18;;;;;;;12.77;3.67;;;18.60;99.90;;;;;;5074137;28;20381;-68
2023/07/02 07:37:44;;;;;;;8.70;3.40;;;19.10;99.90;;;;;;5073044;28;20040;-69
2023/07/02 07:40:10;;;;;;;16.20;3.92;;;18.70;99.90;;;;;;5073512;28;20105;-69
2023/07/02 07:42:35;;;;;;;13.27;3.60;;;18.30;99.90;;;;;;5056101;28;20036;-69
2023/07/02 07:45:03;;;;;;;15.45;4.30;;;18.30;99.90;;;;;;5056168;28;20033;-69
2023/07/02 07:47:28;;;;;;;11.10;3.95;;;18.10;99.90;;;;;;5056115;28;20454;-69
2023/07/02 07:49:54;;;;;;;12.15;4.28;;;18.10;99.90;;;;;;5073142;28;20037;-69
2023/07/02 07:52:20;;;;;;;11.77;4.53;;;18.30;99.90;;;;;;5074159;28;20041;-69
2023/07/02 07:54:46;;;;;;;13.43;4.22;;;18.60;99.90;;;;;;5055923;28;20511;-69
2023/07/02 07:57:12;;;;;;;12.40;4.25;;;18.70;99.90;;;;;;5055946;28;20048;-69
2023/07/02 07:59:37;;;;;;;16.75;4.43;;;18.70;99.90;;;;;;5055129;28;20165;-69
2023/07/02 08:02:03;;;;;;;16.45;4.43;;;18.70;99.90;;;;;;5055795;28;20048;-69
2023/07/02 08:04:29;;;;;;;13.95;4.40;;;19.00;99.90;;;;;;5055487;28;20066;-69
2023/07/02 08:06:55;;;;;;;17.08;4.78;;;19.10;99.90;;;;;;5073523;28;20051;-69
2023/07/02 08:09:21;;;;;;;14.48;4.57;;;18.70;99.90;;;;;;5055165;28;20044;-69
2023/07/02 08:11:46;;;;;;;9.52;4.43;;;18.90;99.90;;;;;;5073434;28;20488;-69
2023/07/02 08:14:13;;;;;;;10.70;3.67;;;19.20;99.90;;;;;;5073637;28;20046;-69
2023/07/02 08:16:38;;;;;;;14.35;4.20;;;18.50;99.90;;;;;;5055897;28;20409;-69
2023/07/02 08:19:05;;;;;;;14.07;3.95;;;18.70;99.90;;;;;;5054872;28;20040;-69
2023/07/02 08:21:30;;;;;;;14.57;4.75;;;19.00;99.90;;;;;;5055340;28;20097;-69
2023/07/02 08:23:57;;;;;;;12.10;4.35;;;19.20;99.90;;;;;;5038649;28;20052;-69
2023/07/02 08:26:23;;;;;;;11.82;4.75;;;19.20;99.90;;;;;;5073312;28;20041;-69
2023/07/02 08:28:49;;;;;;;13.77;3.90;;;18.80;99.90;;;;;;5054963;28;20138;-69
2023/07/02 08:31:16;;;;;;;12.23;3.65;;;19.10;99.90;;;;;;5073007;28;20214;-69
2023/07/02 08:33:41;;;;;;;13.68;3.78;;;19.30;99.90;;;;;;5054551;28;20045;-69
2023/07/02 08:36:07;;;;;;;12.43;4.25;;;19.20;99.90;;;;;;5054974;28;20032;-69
2023/07/02 08:38:33;;;;;;;13.00;3.90;;;19.00;99.90;;;;;;5038347;28;20072;-69
2023/07/02 08:40:58;;;;;;;11.85;4.97;;;19.20;99.90;;;;;;5054749;28;20044;-69
2023/07/02 08:43:26;;;;;;;13.00;3.92;;;19.30;99.90;;;;;;5055348;28;20032;-69
2023/07/02 08:45:53;;;;;;;15.18;4.15;;;19.20;99.90;;;;;;5038195;28;20439;-69
2023/07/02 08:48:22;;;;;;;15.25;4.30;;;18.70;99.90;;;;;;5054297;28;20037;-69
2023/07/02 08:50:49;;;;;;;14.73;4.82;;;18.40;99.90;;;;;;5037933;28;20041;-69
2023/07/02 08:53:15;;;;;;;16.05;4.55;;;18.40;99.90;;;;;;5055266;28;20170;-69
2023/07/02 08:55:40;;;;;;;10.23;3.45;;;18.50;99.90;;;;;;5054659;28;20037;-68
2023/07/02 08:58:06;;;;;;;16.23;5.07;;;18.80;99.90;;;;;;5054253;28;20052;-69
2023/07/02 09:00:36;;;;;;;13.77;4.18;;;18.80;99.90;;;;;;5054411;28;20036;-69
2023/07/02 09:03:15;;;;;;;10.77;3.75;;;18.90;99.90;;;;;;5054602;28;20531;-69
2023/07/02 09:05:50;;;;;;;12.57;4.22;;;18.60;99.90;;;;;;5054667;28;20449;-69
2023/07/02 09:08:24;;;;;;;11.50;3.78;;;18.80;99.90;;;;;;5070786;28;20055;-69
2023/07/02 09:10:49;;;;;;;10.18;3.55;;;18.70;99.90;;;;;;5054258;28;20085;-70
2023/07/02 09:13:16;;;;;;;10.00;3.65;;;18.30;99.90;;;;;;5054702;28;20127;-69
2023/07/02 09:15:42;;;;;;;9.93;3.50;;;18.40;99.90;;;;;;5054423;28;20047;-69
2023/07/02 09:18:21;;;;;;;10.85;4.13;;;18.50;99.90;;;;;;5054125;28;20036;-69
2023/07/02 09:20:51;;;;;;;12.57;3.40;;;19.30;99.90;;;;;;5053970;28;20044;-70
2023/07/02 09:23:17;;;;;;;14.82;3.45;;;19.60;99.90;;;;;;5086365;22;20045;-71
2023/07/02 09:25:43;;;;;;;10.93;3.15;;;19.30;99.90;;;;;;5018480;28;20511;-71
2023/07/02 09:28:19;;;;;;;13.80;3.70;;;19.10;99.90;;;;;;5034288;28;20045;-71
2023/07/02 09:30:57;;;;;;;13.38;3.97;;;18.90;99.90;;;;;;5017960;28;20132;-71
2023/07/02 09:33:29;;;;;;;9.57;3.25;;;18.70;99.90;;;;;;5018005;28;20072;-71
2023/07/02 09:35:55;;;;;;;10.55;3.72;;;18.60;99.90;;;;;;5034452;28;20041;-71
2023/07/02 09:38:24;;;;;;;13.48;4.25;;;18.50;99.90;;;;;;5034271;28;20504;-71
2023/07/02 09:40:51;;;;;;;9.02;3.33;;;18.80;99.90;;;;;;5018176;28;20220;-71
2023/07/02 09:43:18;;;;;;;13.27;3.67;;;19.50;99.90;;;;;;5017984;28;20080;-70
2023/07/02 09:45:47;;;;;;;13.77;4.32;;;19.40;99.90;;;;;;5033529;28;20056;-72
2023/07/02 09:48:17;;;;;;;12.82;3.85;;;19.10;99.90;;;;;;5017360;28;20041;-71
2023/07/02 09:50:49;;;;;;;14.27;3.78;;;18.80;99.90;;;;;;5034190;28;20143;-71
2023/07/02 09:53:15;;;;;;;14.52;4.97;;;18.80;99.90;;;;;;5034366;28;20035;-71
2023/07/02 09:55:44;;;;;;;16.17;3.75;;;19.20;99.90;;;;;;5051925;28;20112;-71
2023/07/02 09:58:13;;;;;;;15.32;4.13;;;19.50;99.90;;;;;;5017983;28;20040;-71
2023/07/02 10:00:40;;;;;;;11.65;3.58;;;19.70;99.90;;;;;;5017982;28;20045;-71
2023/07/02 10:03:06;;;;;;;10.70;3.38;;;20.20;99.90;;;;;;5034597;28;20045;-71
2023/07/02 10:05:33;;;;;;;12.02;3.67;;;20.10;99.90;;;;;;5052203;28;20099;-71
2023/07/02 10:08:13;;;;;;;7.97;3.00;;;20.30;99.90;;;;;;5033577;28;20044;-71
2023/07/02 10:10:39;;;;;;;10.98;3.63;;;20.00;99.90;;;;;;5018026;28;20059;-71
2023/07/02 10:13:06;;;;;;;11.05;3.10;;;;;;;;;;5034372;28;20564;-71
2023/07/02 10:15:37;;;;;;;12.23;3.40;;;19.30;99.90;;;;;;5017790;28;20037;-71
2023/07/02 10:18:04;;;;;;;8.75;3.33;;;19.30;99.90;;;;;;5051680;28;20045;-71
2023/07/02 10:20:35;;;;;;;11.77;3.78;;;19.30;99.90;;;;;;5033876;28;20523;-71
2023/07/02 10:23:01;;;;;;;7.57;3.10;;;;;;;;;;5034178;28;20385;-71
2023/07/02 10:25:34;;;;;;;11.63;3.72;;;19.20;99.90;;;;;;5051970;28;20033;-71
2023/07/02 10:28:01;;;;;;;15.05;3.80;;;19.10;99.90;;;;;;5017360;28;20041;-71
2023/07/02 10:30:46;;;;;;;9.77;3.50;;;19.20;99.90;;;;;;5034088;28;20094;-71
2023/07/02 10:33:16;;;;;;;9.50;4.30;;;19.10;99.90;;;;;;5051845;28;20036;-71
2023/07/02 10:35:48;;;;;;;14.98;3.72;;;19.50;99.90;;;;;;5033875;28;20032;-71
2023/07/02 10:38:26;;;;;;;11.77;3.88;;;19.60;99.90;;;;;;5033678;28;20041;-71
2023/07/02 10:41:01;;;;;;;9.98;3.63;;;19.70;99.90;;;;;;5051908;28;20398;-71
2023/07/02 10:43:28;;;;;;;9.98;3.30;;;19.20;99.90;;;;;;5051430;28;20453;-71
2023/07/02 10:45:54;;;;;;;10.88;3.00;;;19.20;99.90;;;;;;5051681;28;20132;-71
2023/07/02 10:48:20;;;;;;;11.63;3.47;;;19.50;99.90;;;;;;5051285;28;20408;-71
2023/07/02 10:50:47;;;;;;;11.75;2.92;;;19.30;99.90;;;;;;5017504;28;20057;-71
2023/07/02 10:53:16;;;;;;;13.40;3.25;;;19.20;99.90;;;;;;5017566;28;20033;-71
2023/07/02 10:55:42;;;;;;;10.43;3.25;;;19.40;99.90;;;;;;5051660;28;20041;-71
2023/07/02 10:58:10;;;;;;;10.35;2.70;;;19.40;99.90;;;;;;5035280;28;20041;-71
2023/07/02 11:00:46;;;;;;;10.93;2.72;;;19.50;99.90;;;;;;5037473;28;20086;-73
2023/07/02 11:03:26;;;;;;;11.07;3.45;;;19.50;99.90;;;;;;5037559;28;20087;-71
2023/07/02 11:05:53;;;;;;;12.43;3.53;;;19.20;99.90;;;;;;5020918;28;20079;-73
2023/07/02 11:08:23;;;;;;;11.68;3.58;;;19.10;99.90;;;;;;5037162;28;20497;-71
2023/07/02 11:10:49;;;;;;;11.50;3.42;;;19.00;99.90;;;;;;5020921;28;20167;-71
2023/07/02 11:13:19;;;;;;;6.90;2.90;;;19.00;99.90;;;;;;5036853;28;20116;-72
2023/07/02 11:15:46;;;;;;;11.85;3.40;;;19.10;99.90;;;;;;5055015;28;20029;-72
2023/07/02 11:18:15;;;;;;;11.93;2.72;;;19.50;99.90;;;;;;5021097;28;20194;-71
2023/07/02 11:20:45;;;;;;;8.25;2.65;;;19.50;99.90;;;;;;5037437;28;20048;-71
2023/07/02 11:23:24;;;;;;;8.95;2.60;;;19.20;99.90;;;;;;5020576;28;20053;-72
2023/07/02 11:26:03;;;;;;;9.77;2.63;;;19.50;99.90;;;;;;5037385;28;20087;-72
2023/07/02 11:28:31;;;;;;;12.88;3.10;;;19.30;99.90;;;;;;5054389;28;20041;-73
2023/07/02 11:30:58;;;;;;;8.52;2.55;;;19.50;99.90;;;;;;5037257;28;20119;-72
2023/07/02 11:33:42;;;;;;;7.97;2.83;;;19.40;99.90;;;;;;5036838;28;20045;-72
2023/07/02 11:36:20;;;;;;;7.68;2.67;;;19.20;99.90;;;;;;5020790;28;20037;-72
2023/07/02 11:38:49;;;;;;;10.63;2.60;;;19.50;99.90;;;;;;5036547;28;20041;-72
2023/07/02 11:41:15;;;;;;;9.65;2.85;;;19.90;99.90;;;;;;5055005;28;20484;-71
2023/07/02 11:43:41;;;;;;;7.53;3.00;;;19.90;99.90;;;;;;5054331;28;20048;-71
2023/07/02 11:46:15;;;;;;;6.30;2.83;;;19.70;99.90;;;;;;5036784;28;20045;-72
2023/07/02 11:48:41;;;;;;;11.20;2.85;;;19.60;99.90;;;;;;5054704;28;20396;-72
2023/07/02 11:51:08;;;;;;;4.78;2.13;;;19.80;99.90;;;;;;5036384;28;20051;-72
2023/07/02 11:53:34;;;;;;;9.25;2.90;;;20.20;99.90;;;;;;5020079;28;20041;-72
2023/07/02 11:55:59;;;;;;;10.13;2.60;;;19.90;99.90;;;;;;5036460;28;20123;-72
2023/07/02 11:58:25;;;;;;;12.98;3.17;;;19.50;99.90;;;;;;5019529;28;20044;-71
2023/07/02 12:00:51;;;;;;;8.50;2.97;;;19.90;99.90;;;;;;5036210;28;20037;-72
2023/07/02 12:03:17;;;;;;;10.10;3.00;;;;;;;;;;5036699;28;20136;-73
2023/07/02 12:05:43;;;;;;;7.25;2.80;;;20.10;99.90;;;;;;5054521;28;20045;-73
2023/07/02 12:08:09;;;;;;;10.88;3.08;;;19.90;99.90;;;;;;5019441;28;20044;-71
2023/07/02 12:10:35;;;;;;;10.05;3.78;;;19.50;99.90;;;;;;5019152;28;20052;-71
2023/07/02 12:13:00;;;;;;;7.60;3.10;;;19.80;99.90;;;;;;5036373;28;20037;-71
2023/07/02 12:15:26;;;;;;;7.47;2.90;;;20.40;99.90;;;;;;5036305;28;20047;-71
2023/07/02 12:17:52;;;;;;;10.57;3.35;;;19.80;99.90;;;;;;5036351;28;20047;-72
2023/07/02 12:20:18;;;;;;;13.68;3.78;;;20.00;99.90;;;;;;5035995;28;20041;-72
2023/07/02 12:22:44;;;;;;;7.20;3.53;;;19.80;99.90;;;;;;5053794;28;20124;-75
2023/07/02 12:25:10;;;;;;;15.63;4.38;;;19.40;99.90;;;;;;5053850;28;20032;-73
2023/07/02 12:27:36;;;;;;;9.80;3.50;;;19.70;99.90;;;;;;5019270;28;20048;-71
2023/07/02 12:30:03;;;;;;;14.90;3.90;;;19.50;99.90;;;;;;5035328;28;20044;-72
2023/07/02 12:32:30;;;;;;;12.63;3.70;;;19.40;99.90;;;;;;5019157;28;20069;-72
2023/07/02 12:34:55;;;;;;;12.20;4.40;;;19.60;99.90;;;;;;5053955;28;20041;-71
2023/07/02 12:37:21;;;;;;;11.70;3.92;;;19.60;99.90;;;;;;5053956;28;20041;-71